Terminal Aerodrome Forecast
Issued by NWS Blacksburg, VA

Home | Current Version | Previous Version | Text Only | Print | Product List | Glossary On
Versions: 1 2 3 4 5 6 7 8 9 10 11 12 13 14 15 16 17 18 19 20 21 22 23 24 25 26 27 28 29
000
FTUS41 KRNK 051139
TAFBLF
TAF
KBLF 051139Z 0512/0612 27005KT P6SM SCT010 BKN140
      TEMPO 0512/0516 BKN010
     FM051600 28008KT P6SM SCT035 SCT150 BKN250
     FM051800 28009G17KT P6SM SCT040 BKN120 BKN250
     FM060000 25006KT P6SM VCSH BKN050 OVC120
     FM060600 22003KT 5SM -SHRA SCT015 OVC040=

USA.gov is the U.S. government's official web portal to all federal, state and local government web resources and services.